Auburn Lake Trails, California
Current Conditions -  °F | °C
As of 9:15 AM on Friday 24 Oct 2014 (Local Time) from KAUN Reporting Station
Clear Clear  
Wind Chill: 17°   Ceiling: Unl
Heat Index: 17°   Visibility: 10mi
Dew Point:   Wind: 8mph
Humidity: 48%   Direction: 110°ESE
Pressure: 30"   Gusts: NA
Location:  38.8932°N, 120.985°W
Report Text: KAUN 241615Z AUTO 11007KT 10SM CLR 17/06 A3000 RMK AO1
Loading
Personal Weather Stations






























Interactive Weather Map
Tropical Storm Tracking
New forecast layout! Learn more

10-Day Weather Forecast

Advertisements
Track Severe Weather on mobile